createdAt,value
2018-12-02T08:26:53.456Z,98873
2018-12-02T08:32:16.234Z,98864
2018-12-02T08:37:39.883Z,98863
2018-12-02T08:43:02.706Z,98862
2018-12-02T08:48:25.518Z,98866
2018-12-02T08:53:48.234Z,98867
2018-12-02T08:59:10.876Z,98873
2018-12-02T09:04:33.571Z,98873
2018-12-02T09:09:59.571Z,98872
2018-12-02T09:15:19.123Z,98866
2018-12-02T09:20:41.842Z,98859
2018-12-02T09:26:04.551Z,98853
2018-12-02T09:31:27.238Z,98847
2018-12-02T09:36:49.911Z,98855
2018-12-02T09:42:13.669Z,98839
2018-12-02T09:47:36.392Z,98850
2018-12-02T09:52:59.034Z,98840
2018-12-02T09:58:21.705Z,98838
2018-12-02T10:03:44.626Z,98841
2018-12-02T10:09:07.502Z,98841
2018-12-02T10:14:31.805Z,98831
2018-12-02T10:19:55.015Z,98834
2018-12-02T10:25:17.661Z,98827
2018-12-02T10:30:40.395Z,98830
2018-12-02T10:36:03.178Z,98823
2018-12-02T10:41:25.908Z,98818
2018-12-02T10:46:48.689Z,98816
2018-12-02T10:52:11.383Z,98804
2018-12-02T10:57:34.094Z,98801
2018-12-02T11:02:56.982Z,98799
2018-12-02T11:08:19.745Z,98797
2018-12-02T11:13:42.650Z,98793
2018-12-02T11:19:05.392Z,98792
2018-12-02T11:24:28.940Z,98785
2018-12-02T11:29:51.625Z,98783
2018-12-02T11:35:14.374Z,98775
2018-12-02T11:40:37.210Z,98781
2018-12-02T11:46:00.526Z,98784
2018-12-02T11:51:23.209Z,98776
2018-12-02T11:56:46.753Z,98783
2018-12-02T12:02:09.521Z,98777
2018-12-02T12:07:32.220Z,98779
2018-12-02T12:12:54.861Z,98777
2018-12-02T12:18:18.518Z,98774
2018-12-02T12:23:41.242Z,98775
2018-12-02T12:29:03.897Z,98775
2018-12-02T12:34:26.572Z,98776
2018-12-02T12:39:49.238Z,98776
2018-12-02T12:45:11.950Z,98775
2018-12-02T12:50:35.311Z,98777
2018-12-02T12:55:57.977Z,98776
2018-12-02T13:01:20.670Z,98776
2018-12-02T13:06:43.281Z,98776
2018-12-02T13:12:05.980Z,98780
2018-12-02T13:17:29.157Z,98782
2018-12-02T13:22:51.900Z,98779
2018-12-02T13:28:14.670Z,98783
2018-12-02T13:33:37.337Z,98786
2018-12-02T13:39:00.058Z,98783
2018-12-02T13:44:22.903Z,98792
2018-12-02T13:49:45.714Z,98797
2018-12-02T13:55:08.405Z,98808
2018-12-02T14:00:31.075Z,98815
2018-12-02T14:05:53.736Z,98832
2018-12-02T14:11:16.447Z,98832
2018-12-02T14:16:39.323Z,98844
2018-12-02T14:22:02.188Z,98852
2018-12-02T14:27:24.905Z,98851
2018-12-02T14:32:48.380Z,98857
2018-12-02T14:38:11.040Z,98858
2018-12-02T14:43:34.165Z,98870
2018-12-02T14:48:56.808Z,98876
2018-12-02T14:54:19.519Z,98879
2018-12-02T14:59:42.480Z,98883
2018-12-02T15:05:05.133Z,98881
2018-12-02T15:10:27.796Z,98891
2018-12-02T15:15:51.081Z,98891
2018-12-02T15:21:13.385Z,98897
2018-12-02T15:26:36.108Z,98904
2018-12-02T15:31:58.839Z,98914
2018-12-02T15:37:21.558Z,98920
2018-12-02T15:42:45.512Z,98930
2018-12-02T15:48:07.722Z,98936
2018-12-02T15:53:30.454Z,98935
2018-12-02T15:58:53.339Z,98945
2018-12-02T16:04:16.120Z,98944
2018-12-02T16:09:38.992Z,98948
2018-12-02T16:15:01.877Z,98957
2018-12-02T16:20:24.540Z,98965
2018-12-02T16:25:47.340Z,98971
2018-12-02T16:31:11.017Z,98958
2018-12-02T16:36:33.741Z,98959
2018-12-02T16:41:56.468Z,98964
2018-12-02T16:47:19.259Z,98964
2018-12-02T16:52:41.929Z,98961
2018-12-02T16:58:04.571Z,98960
2018-12-02T17:03:27.468Z,98964
2018-12-02T17:08:50.184Z,98956
2018-12-02T17:14:12.831Z,98970
2018-12-02T17:19:38.828Z,98971
2018-12-02T17:25:01.540Z,98972
2018-12-02T17:30:24.266Z,98975
2018-12-02T17:35:47.880Z,98972
2018-12-02T17:41:10.602Z,98972
2018-12-02T17:46:33.200Z,98967
2018-12-02T17:51:55.826Z,98973
2018-12-02T17:57:18.481Z,98988
2018-12-02T18:02:41.191Z,98988
2018-12-02T18:08:03.869Z,98983
2018-12-02T18:13:26.738Z,98985
2018-12-02T18:18:49.494Z,98976
2018-12-02T18:24:12.118Z,98992
2018-12-02T18:29:34.730Z,98991
2018-12-02T18:34:57.546Z,98994
2018-12-02T18:40:20.219Z,98990
2018-12-02T18:45:42.930Z,98995
2018-12-02T18:51:05.686Z,99001
2018-12-02T18:56:28.328Z,98996
2018-12-02T19:01:51.082Z,99002
2018-12-02T19:07:13.762Z,99000
2018-12-02T19:12:36.409Z,99012
2018-12-02T19:17:59.042Z,99015
2018-12-02T19:23:21.694Z,99020
2018-12-02T19:28:45.395Z,99020
2018-12-02T19:34:08.141Z,99024
2018-12-02T19:39:30.826Z,99032
2018-12-02T19:44:53.460Z,99029
2018-12-02T19:50:16.324Z,99029
2018-12-02T19:55:39.610Z,99031
2018-12-02T20:01:02.304Z,99029
2018-12-02T20:06:24.980Z,99029
2018-12-02T20:11:48.378Z,99029
2018-12-02T20:17:11.932Z,99023
2018-12-02T20:22:34.584Z,99013
2018-12-02T20:27:57.794Z,99025
2018-12-02T20:33:20.445Z,99024
2018-12-02T20:38:43.095Z,99030
2018-12-02T20:44:05.749Z,99020
2018-12-02T20:49:28.438Z,99024
2018-12-02T20:54:51.094Z,99021
2018-12-02T21:00:13.758Z,99030
2018-12-02T21:05:36.457Z,99029
2018-12-02T21:10:59.157Z,99034
2018-12-02T21:16:21.835Z,99033
2018-12-02T21:21:44.600Z,99030
2018-12-02T21:27:08.232Z,99024
2018-12-02T21:32:30.901Z,99026
2018-12-02T21:37:53.697Z,99014
2018-12-02T21:43:16.452Z,99014
2018-12-02T21:48:39.888Z,99012
2018-12-02T21:54:02.569Z,99005
2018-12-02T21:59:27.480Z,99004
2018-12-02T22:04:50.234Z,99007
2018-12-02T22:10:12.997Z,99005
2018-12-02T22:15:35.679Z,99003
2018-12-02T22:20:58.419Z,98992
2018-12-02T22:26:21.133Z,98998
2018-12-02T22:31:44.813Z,98998
2018-12-02T22:37:07.537Z,98990
2018-12-02T22:42:30.270Z,98988
2018-12-02T22:47:53.199Z,98988
2018-12-02T22:53:15.923Z,98984
2018-12-02T22:58:38.701Z,98995
2018-12-02T23:04:01.645Z,98998
2018-12-02T23:09:24.318Z,98991
2018-12-02T23:14:46.984Z,98984
2018-12-02T23:20:09.659Z,98987
2018-12-02T23:25:32.315Z,98979
2018-12-02T23:30:54.975Z,98977
2018-12-02T23:36:17.709Z,98981
2018-12-02T23:41:40.521Z,98978
2018-12-02T23:47:03.218Z,98974
2018-12-02T23:52:25.861Z,98975
2018-12-02T23:57:48.706Z,98977
